Time;durP1;ratioP1;P1;durP2;ratioP2;P2;SDS_P1;SDS_P2;PMS_P1;PMS_P2;Temp;Humidity;BMP_temperature;BMP_pressure;BME280_temperature;BME280_humidity;BME280_pressure;Samples;Min_cycle;Max_cycle;Signal;HPM_P1;HPM_P2
2021/07/06 00:00:23;;;;;;;4.80;2.77;;;;;;;17.26;100.00;100042.44;5058200;28;20039;-70
2021/07/06 00:02:50;;;;;;;6.63;3.10;;;;;;;17.25;100.00;100038.06;5049540;28;20029;-70
2021/07/06 00:05:16;;;;;;;5.73;3.37;;;;;;;17.22;100.00;100038.19;5056283;28;20405;-70
2021/07/06 00:07:42;;;;;;;7.17;3.03;;;;;;;17.19;100.00;100035.63;5058189;28;20082;-70
2021/07/06 00:10:10;;;;;;;9.33;2.80;;;;;;;17.17;100.00;100034.84;5058325;28;20125;-70
2021/07/06 00:12:36;;;;;;;9.70;2.80;;;;;;;17.11;100.00;100028.00;5057574;28;20029;-69
2021/07/06 00:15:02;;;;;;;5.73;2.93;;;;;;;17.15;100.00;100034.03;5053450;28;20154;-70
2021/07/06 00:17:28;;;;;;;7.60;3.00;;;;;;;17.14;100.00;100027.03;5053345;28;20538;-70
2021/07/06 00:19:53;;;;;;;7.77;2.90;;;;;;;17.16;100.00;100019.91;5055459;28;20062;-69
2021/07/06 00:22:19;;;;;;;7.13;2.80;;;;;;;17.16;100.00;100027.81;5053072;28;20078;-70
2021/07/06 00:24:47;;;;;;;6.03;3.10;;;;;;;17.18;100.00;100028.63;5054160;28;20214;-70
2021/07/06 00:27:13;;;;;;;5.20;2.47;;;;;;;17.21;100.00;100023.25;5056395;28;20025;-70
2021/07/06 00:29:38;;;;;;;7.83;2.60;;;;;;;17.21;100.00;100026.75;5058629;28;20098;-70
2021/07/06 00:32:05;;;;;;;4.83;2.50;;;;;;;17.22;100.00;100022.34;5058333;28;20032;-70
2021/07/06 00:34:30;;;;;;;4.57;2.63;;;;;;;17.22;100.00;100022.34;5058453;28;20032;-70
2021/07/06 00:36:56;;;;;;;5.27;2.40;;;;;;;17.23;100.00;100022.28;5051382;28;20322;-70
2021/07/06 00:39:22;;;;;;;4.60;2.47;;;;;;;17.25;100.00;100016.94;5047943;28;20309;-70
2021/07/06 00:41:47;;;;;;;5.43;2.63;;;;;;;17.26;100.00;100011.56;5052382;28;20067;-70
2021/07/06 00:44:20;;;;;;;4.13;2.30;;;;;;;17.28;100.00;100015.03;5054748;28;20503;-70
2021/07/06 00:46:49;;;;;;;5.33;2.40;;;;;;;17.28;100.00;100003.59;5053032;28;20141;-70
2021/07/06 00:49:15;;;;;;;5.13;2.50;;;;;;;17.31;100.00;99977.03;5047409;28;20029;-70
2021/07/06 00:51:40;;;;;;;4.87;2.43;;;;;;;17.37;100.00;99966.25;5052919;28;20043;-70
2021/07/06 00:54:07;;;;;;;5.30;2.30;;;;;;;17.36;100.00;99969.81;5052093;28;20067;-70
2021/07/06 00:56:34;;;;;;;6.93;2.27;;;;;;;17.40;100.00;99966.13;5053154;28;20052;-70
2021/07/06 00:58:59;;;;;;;3.30;2.00;;;;;;;17.43;100.00;99976.56;5056185;28;20504;-70
2021/07/06 01:01:26;;;;;;;4.43;2.50;;;;;;;17.41;100.00;99965.19;5049175;28;20032;-70
2021/07/06 01:03:51;;;;;;;6.80;2.57;;;;;;;17.39;100.00;99969.69;5081993;23;20139;-70
2021/07/06 01:06:17;;;;;;;4.93;2.33;;;;;;;17.36;100.00;99953.94;5054510;28;20151;-70
2021/07/06 01:08:46;;;;;;;4.17;2.27;;;;;;;17.37;100.00;99957.47;5059205;28;20052;-70
2021/07/06 01:11:14;;;;;;;6.33;2.53;;;;;;;17.37;100.00;99960.97;5057077;28;20280;-70
2021/07/06 01:13:39;;;;;;;5.93;2.60;;;;;;;17.38;100.00;99973.25;5053823;28;20162;-70
2021/07/06 01:16:05;;;;;;;4.10;2.27;;;;;;;17.38;100.00;99970.63;5057503;28;20202;-70
2021/07/06 01:18:30;;;;;;;5.73;2.23;;;;;;;17.38;100.00;99973.25;5058481;28;20292;-70
2021/07/06 01:21:12;;;;;;;6.00;2.20;;;;;;;17.37;100.00;99981.25;5058308;28;20024;-70
2021/07/06 01:23:37;;;;;;;4.27;2.00;;;;;;;17.33;100.00;99979.66;5051608;28;20096;-70
2021/07/06 01:26:06;;;;;;;4.40;2.30;;;;;;;17.34;100.00;99976.94;5058198;28;20140;-70
2021/07/06 01:28:33;;;;;;;4.87;2.20;;;;;;;17.27;100.00;99970.16;5059148;28;20448;-68
2021/07/06 01:30:59;;;;;;;4.30;2.50;;;;;;;17.21;100.00;99980.97;5058706;28;20040;-68
2021/07/06 01:33:27;;;;;;;4.03;2.20;;;;;;;17.20;100.00;99966.00;5058907;28;20451;-68
2021/07/06 01:35:56;;;;;;;5.40;2.30;;;;;;;17.21;100.00;99962.47;5058534;28;20036;-68
2021/07/06 01:38:22;;;;;;;4.87;2.20;;;;;;;17.20;100.00;99963.38;5056207;28;20056;-68
2021/07/06 01:40:48;;;;;;;4.60;2.03;;;;;;;17.17;100.00;99974.06;5058256;28;20292;-68
2021/07/06 01:43:14;;;;;;;5.33;2.00;;;;;;;17.15;100.00;99973.25;5058222;28;20020;-69
2021/07/06 01:45:39;;;;;;;4.30;2.10;;;;;;;17.14;100.00;99963.59;5058070;28;20033;-68
2021/07/06 01:48:05;;;;;;;4.40;2.20;;;;;;;17.16;100.00;99967.06;5051305;28;20056;-68
2021/07/06 01:50:42;;;;;;;4.10;2.10;;;;;;;17.20;100.00;99974.81;5058003;28;20279;-68
2021/07/06 01:53:10;;;;;;;4.50;2.17;;;;;;;17.21;100.00;99970.41;5051111;28;20055;-68
2021/07/06 01:55:39;;;;;;;5.20;2.17;;;;;;;17.20;100.00;99963.38;5062453;28;20049;-68
2021/07/06 01:58:07;;;;;;;5.43;2.00;;;;;;;17.18;100.00;99962.56;5061384;28;20039;-68
2021/07/06 02:00:35;;;;;;;4.93;2.10;;;;;;;17.18;100.00;99970.50;5061610;28;20433;-68
2021/07/06 02:03:03;;;;;;;3.50;2.00;;;;;;;17.17;100.00;99963.50;5061410;28;20028;-68
2021/07/06 02:05:35;;;;;;;6.37;1.97;;;;;;;17.14;100.00;99958.31;5051895;28;20165;-68
2021/07/06 02:08:02;;;;;;;5.60;2.30;;;;;;;17.14;100.00;99956.53;5056486;28;20183;-68
2021/07/06 02:10:29;;;;;;;4.53;2.00;;;;;;;17.08;100.00;99959.44;5061333;28;20036;-68
2021/07/06 02:12:56;;;;;;;4.20;2.50;;;;;;;17.08;100.00;99963.81;5060380;28;20453;-68
2021/07/06 02:15:22;;;;;;;3.47;1.83;;;;;;;17.05;100.00;99943.66;5058697;28;20029;-68
2021/07/06 02:17:48;;;;;;;3.70;2.03;;;;;;;17.06;100.00;99944.53;5058537;28;20242;-68
2021/07/06 02:20:17;;;;;;;3.77;2.17;;;;;;;17.04;100.00;99931.38;5053994;28;20160;-68
2021/07/06 02:22:44;;;;;;;4.57;2.23;;;;;;;17.05;100.00;99926.97;5061082;28;20482;-68
2021/07/06 02:25:11;;;;;;;6.50;2.77;;;;;;;17.06;100.00;99939.25;5053102;28;20126;-68
2021/07/06 02:27:38;;;;;;;3.53;2.00;;;;;;;17.05;100.00;99937.53;5058479;28;20091;-68
2021/07/06 02:30:06;;;;;;;7.10;2.20;;;;;;;17.04;100.00;99935.81;5046202;28;20029;-70
2021/07/06 02:32:32;;;;;;;5.07;2.23;;;;;;;17.05;100.00;99926.97;5056468;28;20106;-70
2021/07/06 02:34:57;;;;;;;6.80;2.50;;;;;;;17.09;100.00;99920.66;5056738;28;20439;-70
2021/07/06 02:37:23;;;;;;;3.77;2.27;;;;;;;17.11;100.00;99921.47;5059570;28;20174;-70
2021/07/06 02:39:48;;;;;;;5.33;2.30;;;;;;;17.14;100.00;99922.19;5059799;28;20034;-70
2021/07/06 02:42:14;;;;;;;4.00;2.00;;;;;;;17.18;100.00;99918.50;5060674;28;20047;-71
2021/07/06 02:44:40;;;;;;;4.67;1.80;;;;;;;17.21;100.00;99923.69;5048085;28;20021;-70
2021/07/06 02:47:06;;;;;;;5.53;2.20;;;;;;;17.24;100.00;99917.44;5057773;28;20025;-70
2021/07/06 02:49:31;;;;;;;3.93;2.43;;;;;;;17.24;100.00;99917.44;5056556;28;20157;-71
2021/07/06 02:51:56;;;;;;;4.07;2.20;;;;;;;17.25;100.00;99914.72;5053046;28;20120;-70
2021/07/06 02:54:22;;;;;;;3.93;2.20;;;;;;;17.26;100.00;99910.28;5057596;28;20108;-71
2021/07/06 02:56:51;;;;;;;6.33;2.40;;;;;;;17.25;100.00;99913.88;5060549;28;20028;-70
2021/07/06 02:59:17;;;;;;;4.37;2.30;;;;;;;17.26;100.00;99905.00;5058455;28;20230;-70
2021/07/06 03:01:42;;;;;;;4.47;2.30;;;;;;;17.25;100.00;99900.66;5058098;28;20089;-70
2021/07/06 03:04:08;;;;;;;4.17;2.10;;;;;;;17.24;100.00;99896.28;5059624;28;20064;-68
2021/07/06 03:06:33;;;;;;;4.30;2.27;;;;;;;17.20;100.00;99894.66;5060453;28;20025;-68
2021/07/06 03:09:00;;;;;;;10.20;2.37;;;;;;;17.19;100.00;99903.50;5055030;28;20024;-68
2021/07/06 03:11:25;;;;;;;4.40;2.00;;;;;;;17.23;100.00;99915.72;5057628;28;20332;-68
2021/07/06 03:13:51;;;;;;;6.00;2.00;;;;;;;17.24;100.00;99912.13;5058956;28;20178;-68
2021/07/06 03:16:16;;;;;;;3.23;1.80;;;;;;;17.25;100.00;99914.72;5057571;28;20031;-68
2021/07/06 03:18:42;;;;;;;4.53;2.00;;;;;;;17.26;100.00;99894.44;5059264;28;20025;-69
2021/07/06 03:21:07;;;;;;;4.10;1.93;;;;;;;17.29;100.00;99904.88;5052642;28;20029;-68
2021/07/06 03:23:33;;;;;;;4.00;2.20;;;;;;;17.32;100.00;99902.09;5054516;28;20411;-68
2021/07/06 03:25:58;;;;;;;5.07;2.00;;;;;;;17.37;100.00;99902.81;5059692;28;20051;-69
2021/07/06 03:28:24;;;;;;;3.40;1.97;;;;;;;17.38;100.00;99888.66;5057496;28;20196;-68
2021/07/06 03:30:49;;;;;;;4.47;2.10;;;;;;;17.38;100.00;99887.81;5054133;28;20036;-70
2021/07/06 03:33:15;;;;;;;4.37;1.83;;;;;;;17.42;100.00;99887.63;5058089;28;20106;-70
2021/07/06 03:35:40;;;;;;;3.57;2.03;;;;;;;17.42;100.00;99889.41;5051909;28;20305;-70
2021/07/06 03:38:06;;;;;;;4.50;1.80;;;;;;;17.43;100.00;99876.13;5051562;28;20523;-70
2021/07/06 03:40:33;;;;;;;2.83;1.70;;;;;;;17.47;100.00;99883.03;5051364;28;20485;-70
2021/07/06 03:42:59;;;;;;;6.00;2.10;;;;;;;17.47;100.00;99877.75;5050282;28;20031;-70
2021/07/06 03:45:25;;;;;;;4.77;2.10;;;;;;;17.48;100.00;99883.88;5057815;28;20024;-70
2021/07/06 03:47:51;;;;;;;3.20;1.70;;;;;;;17.50;100.00;99882.91;5059175;28;20192;-70
2021/07/06 03:50:20;;;;;;;4.97;1.97;;;;;;;17.50;100.00;99890.81;5056637;28;20073;-70
2021/07/06 03:52:56;;;;;;;3.80;1.80;;;;;;;17.55;100.00;99891.50;5056904;28;20433;-70
2021/07/06 03:55:22;;;;;;;4.13;1.70;;;;;;;17.62;100.00;99881.53;5052519;28;20227;-70
2021/07/06 03:57:48;;;;;;;3.40;1.80;;;;;;;17.65;100.00;99872.63;5058846;28;20028;-70
2021/07/06 04:00:20;;;;;;;4.70;1.70;;;;;;;17.68;100.00;99864.56;5057558;28;20499;-70
2021/07/06 04:02:46;;;;;;;;;;;;;;;17.68;100.00;99862.75;5055037;28;20061;-70
2021/07/06 04:05:13;;;;;;;3.23;1.77;;;;;;;17.68;100.00;99865.41;5048129;28;19973;-70
2021/07/06 04:07:39;;;;;;;2.90;1.50;;;;;;;17.66;100.00;99850.53;5058430;28;20032;-70
2021/07/06 04:10:07;;;;;;;2.67;1.47;;;;;;;17.72;100.00;99845.03;5054020;28;20062;-70
2021/07/06 04:12:33;;;;;;;4.37;1.73;;;;;;;17.80;100.00;99842.91;5056715;28;20707;-70
2021/07/06 04:14:59;;;;;;;3.20;1.60;;;;;;;17.90;100.00;99846.91;5055208;28;20020;-70
2021/07/06 04:17:24;;;;;;;4.07;1.40;;;;;;;17.95;100.00;99863.47;5055752;28;20587;-70
2021/07/06 04:19:50;;;;;;;2.70;1.57;;;;;;;17.94;100.00;99871.47;5054002;28;20376;-70
2021/07/06 04:22:16;;;;;;;5.17;1.40;;;;;;;17.93;100.00;99870.59;5058079;28;20028;-70
2021/07/06 04:24:41;;;;;;;3.00;1.60;;;;;;;17.93;100.00;99870.59;5058233;28;20104;-71
2021/07/06 04:27:07;;;;;;;2.27;1.30;;;;;;;17.91;100.00;99876.84;5056834;28;20065;-70
2021/07/06 04:29:33;;;;;;;3.77;1.50;;;;;;;17.89;100.00;99874.28;5053284;28;20063;-70
2021/07/06 04:31:58;;;;;;;4.17;1.50;;;;;;;17.88;100.00;99883.13;5053659;28;20020;-70
2021/07/06 04:34:24;;;;;;;2.87;1.40;;;;;;;17.85;100.00;99878.00;5052183;28;20028;-70
2021/07/06 04:36:50;;;;;;;2.30;1.40;;;;;;;17.79;100.00;99879.09;5059463;28;20028;-70
2021/07/06 04:39:17;;;;;;;2.37;1.33;;;;;;;17.74;100.00;99878.44;5059428;28;20035;-70
2021/07/06 04:41:44;;;;;;;2.23;1.40;;;;;;;17.74;100.00;99869.63;5058771;28;20059;-70
2021/07/06 04:44:10;;;;;;;2.50;1.40;;;;;;;17.77;100.00;99859.78;5058668;28;20084;-70
2021/07/06 04:46:35;;;;;;;3.33;1.50;;;;;;;17.83;100.00;99863.97;5047974;28;20037;-70
2021/07/06 04:49:04;;;;;;;2.90;1.50;;;;;;;17.95;100.00;99862.59;5047569;28;20043;-70
2021/07/06 04:51:30;;;;;;;3.20;1.33;;;;;;;18.14;100.00;99867.03;5056249;28;20032;-70
2021/07/06 04:53:56;;;;;;;3.33;1.30;;;;;;;18.30;100.00;99863.72;5049793;28;20086;-70
2021/07/06 04:56:24;;;;;;;3.07;1.47;;;;;;;18.46;100.00;99864.75;5047334;28;20028;-70
2021/07/06 04:58:50;;;;;;;3.53;1.27;;;;;;;18.60;100.00;99854.41;5050633;28;20025;-70
2021/07/06 05:01:15;;;;;;;3.07;1.10;;;;;;;18.74;100.00;99837.91;5056549;28;20038;-70
2021/07/06 05:03:42;;;;;;;3.60;1.17;;;;;;;18.83;100.00;99837.50;5054179;28;20061;-70
2021/07/06 05:06:07;;;;;;;1.70;1.10;;;;;;;18.95;100.00;99831.63;5055759;28;20033;-70
2021/07/06 05:08:34;;;;;;;2.57;1.30;;;;;;;19.36;100.00;99831.44;5059490;28;20230;-70
2021/07/06 05:11:00;;;;;;;2.00;1.07;;;;;;;19.22;100.00;99832.09;5058197;28;20029;-70
2021/07/06 05:13:26;;;;;;;4.70;1.33;;;;;;;18.99;100.00;99813.78;5046151;28;20033;-70
2021/07/06 05:15:52;;;;;;;3.13;1.37;;;;;;;18.73;100.00;99817.66;5057467;28;20040;-70
2021/07/06 05:18:18;;;;;;;2.27;1.20;;;;;;;18.62;100.00;99810.16;5058222;28;20025;-70
2021/07/06 05:20:43;;;;;;;3.97;1.30;;;;;;;18.65;100.00;99812.69;5058768;28;20452;-70
2021/07/06 05:23:09;;;;;;;2.60;1.43;;;;;;;18.89;100.00;99804.53;5055864;28;20059;-70
2021/07/06 05:25:34;;;;;;;2.20;1.13;;;;;;;19.19;100.00;99803.09;5040075;28;20195;-70
2021/07/06 05:28:00;;;;;;;1.95;1.13;;;;;;;21.15;100.00;99811.47;5051203;28;20055;-71
2021/07/06 05:30:25;;;;;;;2.95;1.20;;;;;;;21.64;100.00;99806.88;5058109;28;20029;-71
2021/07/06 05:32:51;;;;;;;1.75;0.90;;;;;;;21.53;100.00;99796.84;5060354;28;20043;-70
2021/07/06 05:35:16;;;;;;;2.08;1.00;;;;;;;20.99;100.00;99804.38;5051042;28;20102;-70
2021/07/06 05:37:42;;;;;;;1.75;0.93;;;;;;;20.69;100.00;99827.28;5051692;28;20377;-70
2021/07/06 05:40:10;;;;;;;1.25;0.80;;;;;;;20.51;100.00;99829.16;5053967;28;20319;-70
2021/07/06 05:42:37;;;;;;;1.55;0.93;;;;;;;20.23;100.00;99823.53;5061571;28;20086;-70
2021/07/06 05:45:05;;;;;;;2.92;1.10;;;;;;;20.01;100.00;99829.13;5056733;28;20028;-70
2021/07/06 05:47:35;;;;;;;2.38;1.08;;;;;;;19.79;100.00;99824.06;5058303;28;20039;-70
2021/07/06 05:50:06;;;;;;;3.08;1.00;;;;;;;19.75;100.00;99828.66;5050055;28;20113;-70
2021/07/06 05:52:33;;;;;;;2.47;1.10;;;;;;;19.79;100.00;99839.97;5056861;28;20043;-70
2021/07/06 05:55:00;;;;;;;3.45;1.20;;;;;;;19.84;100.00;99838.78;5060966;28;20587;-70
2021/07/06 05:57:31;;;;;;;4.97;1.20;;;;;;;19.94;100.00;99838.31;5061505;28;20029;-70
2021/07/06 05:59:57;;;;;;;5.88;1.52;;;;;;;19.96;100.00;99841.75;5049299;28;20033;-70
2021/07/06 06:02:23;;;;;;;2.17;1.00;;;;;;;20.04;100.00;99842.22;5053609;28;20610;-70
2021/07/06 06:04:49;;;;;;;3.92;1.08;;;;;;;20.02;100.00;99831.69;5057506;28;20048;-70
2021/07/06 06:07:14;;;;;;;1.70;0.88;;;;;;;20.17;100.00;99835.34;5059891;28;20033;-70
2021/07/06 06:09:39;;;;;;;1.77;1.00;;;;;;;20.16;100.00;99830.97;5061893;28;20222;-70
2021/07/06 06:12:05;;;;;;;4.13;1.15;;;;;;;20.30;100.00;99836.44;5061520;28;20102;-70
2021/07/06 06:14:31;;;;;;;1.60;0.90;;;;;;;20.40;100.00;99827.03;5061509;28;20548;-69
2021/07/06 06:16:56;;;;;;;3.72;1.10;;;;;;;21.08;100.00;99850.84;5061349;28;20036;-69
2021/07/06 06:19:22;;;;;;;3.33;1.15;;;;;;;22.67;100.00;99846.88;5061734;28;20032;-70
2021/07/06 06:21:47;;;;;;;2.08;0.90;;;;;;;23.60;100.00;99854.25;5061490;28;20220;-70
2021/07/06 06:24:13;;;;;;;2.50;0.90;;;;;;;24.18;100.00;99861.03;5062027;28;20488;-70
2021/07/06 06:26:38;;;;;;;2.15;0.90;;;;;;;24.19;100.00;99844.03;5061259;28;20035;-69
2021/07/06 06:29:04;;;;;;;2.88;0.73;;;;;;;24.12;100.00;99850.78;5061674;28;20116;-70
2021/07/06 06:31:29;;;;;;;3.83;0.70;;;;;;;25.01;100.00;99851.66;5061388;28;20469;-70
2021/07/06 06:33:55;;;;;;;1.30;0.70;;;;;;;24.64;100.00;99842.69;5061689;28;20029;-69
2021/07/06 06:36:20;;;;;;;2.97;0.80;;;;;;;23.06;100.00;99838.19;5060534;28;20483;-69
2021/07/06 06:38:46;;;;;;;2.20;0.98;;;;;;;21.95;100.00;99843.22;5060298;28;20112;-69
2021/07/06 06:41:11;;;;;;;2.58;1.00;;;;;;;21.20;100.00;99839.53;5061080;28;20383;-69
2021/07/06 06:43:38;;;;;;;1.58;0.80;;;;;;;20.90;100.00;99831.44;5061204;28;20052;-69
2021/07/06 06:46:04;;;;;;;1.23;0.80;;;;;;;20.69;100.00;99837.94;5060854;28;20461;-69
2021/07/06 06:48:30;;;;;;;1.40;0.88;;;;;;;20.46;100.00;99831.19;5061111;28;20038;-69
2021/07/06 06:50:55;;;;;;;1.20;0.80;;;;;;;20.32;100.00;99842.50;5060709;28;20111;-68
2021/07/06 06:53:21;;;;;;;1.38;0.80;;;;;;;20.35;100.00;99833.50;5061176;28;20252;-69
2021/07/06 06:55:46;;;;;;;1.48;0.90;;;;;;;20.42;100.00;99830.50;5060593;28;20033;-68
2021/07/06 06:58:11;;;;;;;2.97;0.98;;;;;;;20.54;100.00;99836.97;5060990;28;20027;-68
2021/07/06 07:00:37;;;;;;;4.22;1.08;;;;;;;20.58;100.00;99829.66;5060402;28;20466;-68
2021/07/06 07:03:03;;;;;;;2.30;0.95;;;;;;;20.58;100.00;99842.97;5060946;28;20127;-68
2021/07/06 07:05:28;;;;;;;2.70;0.88;;;;;;;20.81;100.00;99847.88;5060434;28;20278;-68
2021/07/06 07:07:57;;;;;;;3.90;1.10;;;;;;;21.16;100.00;99842.44;5060102;28;20090;-68
2021/07/06 07:10:23;;;;;;;4.20;1.00;;;;;;;21.42;100.00;99843.66;5060711;28;20081;-69
2021/07/06 07:12:48;;;;;;;2.85;0.90;;;;;;;21.63;100.00;99843.28;5060465;28;20028;-69
2021/07/06 07:15:14;;;;;;;1.55;0.70;;;;;;;21.72;100.00;99841.03;5060592;28;20369;-69
2021/07/06 07:17:39;;;;;;;1.23;0.70;;;;;;;21.71;100.00;99836.66;5059936;28;20059;-69
2021/07/06 07:20:07;;;;;;;2.08;0.80;;;;;;;21.85;100.00;99832.25;5060487;28;20037;-68
2021/07/06 07:22:32;;;;;;;1.45;0.82;;;;;;;22.11;100.00;99836.03;5060218;28;20420;-69
2021/07/06 07:24:58;;;;;;;1.00;0.70;;;;;;;22.28;100.00;99829.69;5060482;28;20101;-69
2021/07/06 07:27:23;;;;;;;6.82;0.75;;;;;;;22.42;100.00;99842.19;5059794;28;20086;-69
2021/07/06 07:29:49;;;;;;;2.00;0.65;;;;;;;22.79;100.00;99835.44;5059840;28;20052;-68
2021/07/06 07:32:15;;;;;;;0.90;0.60;;;;;;;22.98;100.00;99845.81;5059820;28;20034;-69
2021/07/06 07:34:42;;;;;;;1.27;0.75;;;;;;;23.24;100.00;99836.97;5059903;28;20060;-69
2021/07/06 07:37:08;;;;;;;1.23;0.70;;;;;;;23.20;100.00;99824.81;5059628;28;20104;-69
2021/07/06 07:39:34;;;;;;;1.67;0.90;;;;;;;23.01;100.00;99818.94;5059828;28;20029;-68
2021/07/06 07:42:03;;;;;;;2.75;1.13;;;;;;;23.12;100.00;99816.44;5059854;28;20039;-69
2021/07/06 07:44:29;;;;;;;2.13;0.82;;;;;;;23.18;100.00;99823.19;5059718;28;20119;-69
2021/07/06 07:46:54;;;;;;;2.60;0.90;;;;;;;23.16;100.00;99827.78;5059804;28;20135;-69
2021/07/06 07:49:20;;;;;;;1.80;0.80;;;;;;;23.21;100.00;99826.53;5059432;28;20050;-69
2021/07/06 07:51:46;;;;;;;1.85;0.60;;;;;;;23.56;100.00;99826.03;5059653;28;20634;-69
2021/07/06 07:54:11;;;;;;;2.25;0.95;;;;;;;23.46;100.00;99822.25;5059715;28;20024;-69
2021/07/06 07:56:37;;;;;;;1.45;0.73;;;;;;;23.23;100.00;99823.75;5059614;28;20285;-68
2021/07/06 07:59:02;;;;;;;1.30;0.70;;;;;;;23.13;100.00;99802.13;5059472;28;20035;-69
2021/07/06 08:01:28;;;;;;;4.07;0.80;;;;;;;23.20;100.00;99807.94;5059435;28;20100;-68
2021/07/06 08:03:53;;;;;;;0.73;0.52;;;;;;;22.89;100.00;99820.56;5045917;28;20132;-69
2021/07/06 08:06:19;;;;;;;1.85;0.70;;;;;;;22.67;100.00;99818.41;5059404;28;20279;-69
2021/07/06 08:08:44;;;;;;;2.75;1.02;;;;;;;22.59;100.00;99811.81;5059211;28;20485;-68
2021/07/06 08:11:10;;;;;;;1.15;0.68;;;;;;;22.62;100.00;99807.16;5059518;28;20237;-68
2021/07/06 08:13:35;;;;;;;2.25;0.77;;;;;;;22.49;100.00;99801.72;5056042;28;20711;-68
2021/07/06 08:16:01;;;;;;;1.50;0.80;;;;;;;22.51;100.00;99796.28;5059400;28;20078;-69
2021/07/06 08:18:27;;;;;;;3.15;0.60;;;;;;;22.54;100.00;99793.47;5058988;28;20466;-69
2021/07/06 08:20:52;;;;;;;1.13;0.70;;;;;;;22.49;100.00;99790.22;5059286;28;20480;-68
2021/07/06 08:23:18;;;;;;;1.73;0.70;;;;;;;22.51;100.00;99778.50;5059516;28;20235;-68
2021/07/06 08:25:44;;;;;;;1.75;0.75;;;;;;;22.54;100.00;99784.63;5059226;28;20028;-68
2021/07/06 08:28:10;;;;;;;2.45;0.77;;;;;;;22.52;100.00;99788.19;5059630;28;20060;-68
2021/07/06 08:30:35;;;;;;;2.47;0.65;;;;;;;22.43;100.00;99782.63;5058833;28;20433;-68
2021/07/06 08:33:01;;;;;;;2.05;0.50;;;;;;;22.25;100.00;99791.72;5059207;28;20082;-68
2021/07/06 08:35:26;;;;;;;11.52;0.85;;;;;;;22.06;100.00;99805.31;5059330;28;20193;-68
2021/07/06 08:37:52;;;;;;;1.65;0.60;;;;;;;21.92;100.00;99806.09;5058986;28;20040;-68
2021/07/06 08:40:18;;;;;;;1.48;0.50;;;;;;;21.72;100.00;99801.97;5058884;28;20024;-68
2021/07/06 08:42:44;;;;;;;3.33;0.80;;;;;;;21.71;100.00;99807.38;5058639;28;20032;-68
2021/07/06 08:45:11;;;;;;;1.40;0.60;;;;;;;21.70;100.00;99806.53;5059014;28;20093;-68
2021/07/06 08:47:44;;;;;;;1.20;0.50;;;;;;;21.63;100.00;99798.03;5058685;28;20032;-68
2021/07/06 08:50:13;;;;;;;1.48;0.50;;;;;;;21.62;100.00;99806.13;5058796;28;20029;-68
2021/07/06 08:52:44;;;;;;;1.52;0.60;;;;;;;21.53;100.00;99794.19;5058427;28;20074;-68
2021/07/06 08:55:10;;;;;;;1.45;0.60;;;;;;;21.43;100.00;99801.00;5058993;28;20112;-68
2021/07/06 08:57:43;;;;;;;0.98;0.52;;;;;;;21.14;100.00;99781.38;5058769;28;20116;-69
2021/07/06 09:00:12;;;;;;;6.43;0.93;;;;;;;20.91;100.00;99766.72;5058319;28;20263;-68
2021/07/06 09:02:37;;;;;;;2.42;0.50;;;;;;;20.70;100.00;99722.72;5059399;28;20115;-69
2021/07/06 09:05:03;;;;;;;1.38;0.70;;;;;;;20.54;100.00;99732.50;5062751;28;20124;-69
2021/07/06 09:07:41;;;;;;;2.55;0.70;;;;;;;20.20;100.00;99729.84;5062960;28;20484;-68
2021/07/06 09:10:21;;;;;;;2.15;0.60;;;;;;;19.83;100.00;99727.41;5062673;28;20082;-68
2021/07/06 09:12:47;;;;;;;2.38;0.60;;;;;;;19.68;100.00;99742.34;5062776;28;20074;-68
2021/07/06 09:15:38;;;;;;;0.60;0.50;;;;;;;19.85;100.00;99803.34;5062911;28;20496;-68
2021/07/06 09:18:15;;;;;;;1.73;0.50;;;;;;;19.79;100.00;99808.97;5053993;28;20515;-68
2021/07/06 09:20:44;;;;;;;2.30;0.70;;;;;;;19.82;100.00;99803.50;5062424;28;20385;-68
2021/07/06 09:23:25;;;;;;;2.28;1.10;;;;;;;20.00;100.00;99812.34;5062717;28;20025;-68
2021/07/06 09:26:24;;;;;;;2.63;0.70;;;;;;;20.17;100.00;99787.56;5062583;28;20601;-68
2021/07/06 09:28:55;;;;;;;4.28;0.70;;;;;;;20.37;100.00;99779.41;5051688;28;20028;-68
2021/07/06 09:31:34;;;;;;;1.67;0.52;;;;;;;20.43;100.00;99773.78;5061955;28;20546;-68
2021/07/06 09:34:05;;;;;;;1.35;0.50;;;;;;;20.42;100.00;99788.00;5062688;28;20337;-68
2021/07/06 09:36:47;;;;;;;0.85;0.55;;;;;;;20.46;100.00;99801.97;5062517;28;20321;-68
2021/07/06 09:39:25;;;;;;;2.80;0.43;;;;;;;20.47;100.00;99791.28;5062331;28;20028;-68
2021/07/06 09:42:08;;;;;;;3.25;0.60;;;;;;;20.35;100.00;99781.28;5061686;28;20137;-69
2021/07/06 09:44:39;;;;;;;1.02;0.40;;;;;;;20.31;100.00;99755.81;5062260;28;20277;-68
2021/07/06 09:47:13;;;;;;;1.25;0.60;;;;;;;20.31;100.00;99755.81;5061893;28;20075;-68
2021/07/06 09:49:52;;;;;;;2.88;0.50;;;;;;;-145.18;100.00;60484.78;5062335;28;20159;-69
2021/07/06 09:52:19;;;;;;;1.17;0.55;;;;;;;-145.18;100.00;60484.78;5061600;28;20108;-68
2021/07/06 09:54:50;;;;;;;1.50;0.60;;;;;;;-145.18;100.00;60484.78;5062078;28;20016;-68
2021/07/06 09:57:31;;;;;;;2.03;0.80;;;;;;;-145.18;100.00;60484.78;5061928;28;20468;-68
2021/07/06 10:00:19;;;;;;;1.35;0.60;;;;;;;-145.18;100.00;60484.78;5061939;28;20569;-68
2021/07/06 10:02:45;;;;;;;3.70;0.68;;;;;;;-145.18;100.00;60484.78;5061296;28;20554;-68
2021/07/06 10:05:20;;;;;;;1.27;0.60;;;;;;;-145.18;100.00;60484.78;5061347;28;20040;-68
2021/07/06 10:07:45;;;;;;;1.08;0.57;;;;;;;-145.18;100.00;60484.78;5061985;28;20280;-68
2021/07/06 10:10:13;;;;;;;1.27;0.90;;;;;;;-145.18;100.00;60484.78;5060896;28;20096;-68
2021/07/06 10:12:48;;;;;;;3.22;0.50;;;;;;;-145.18;100.00;60484.78;5059165;28;20037;-68
2021/07/06 10:15:15;;;;;;;2.47;0.50;;;;;;;-145.18;100.00;60484.78;5061864;28;20024;-68
2021/07/06 10:17:41;;;;;;;16.95;0.98;;;;;;;-145.18;100.00;60484.78;5061568;28;20320;-68
2021/07/06 10:20:10;;;;;;;1.60;0.50;;;;;;;-145.18;100.00;60484.78;5061773;28;20028;-68
2021/07/06 10:22:36;;;;;;;1.05;0.50;;;;;;;-145.18;100.00;60484.78;5061046;28;20061;-68
2021/07/06 10:25:05;;;;;;;0.80;0.60;;;;;;;-145.18;100.00;60484.78;5061803;28;20032;-68
2021/07/06 10:27:33;;;;;;;1.15;0.50;;;;;;;-145.18;100.00;60484.78;5061537;28;20136;-68
2021/07/06 10:30:16;;;;;;;2.10;0.60;;;;;;;-145.18;100.00;60484.78;5061288;28;20323;-68
2021/07/06 10:32:43;;;;;;;2.42;0.52;;;;;;;-145.18;100.00;60484.78;5060930;28;20050;-68
2021/07/06 10:35:12;;;;;;;0.88;0.50;;;;;;;-145.18;100.00;60484.78;5061341;28;20025;-68
2021/07/06 10:37:39;;;;;;;0.95;0.45;;;;;;;-145.18;100.00;60484.78;5061030;28;20040;-68
2021/07/06 10:40:22;;;;;;;0.57;0.40;;;;;;;-145.18;100.00;60484.78;5061291;28;20024;-68
2021/07/06 10:42:50;;;;;;;1.40;0.45;;;;;;;-145.18;100.00;60484.78;5060798;28;20127;-68
2021/07/06 10:45:18;;;;;;;3.15;0.50;;;;;;;-145.18;100.00;60484.78;5060920;28;20079;-69
2021/07/06 10:47:51;;;;;;;0.73;0.40;;;;;;;-145.18;100.00;60484.78;5060541;28;20281;-69
2021/07/06 10:50:49;;;;;;;2.05;0.45;;;;;;;-145.18;100.00;60484.78;5056614;28;20645;-69
2021/07/06 10:53:23;;;;;;;1.88;0.40;;;;;;;-145.18;100.00;60484.78;5042508;28;20426;-68
2021/07/06 10:56:13;;;;;;;0.82;0.50;;;;;;;-145.18;100.00;60484.78;5060493;28;20032;-69
2021/07/06 10:58:53;;;;;;;0.77;0.40;;;;;;;-145.18;100.00;60484.78;5060900;28;20042;-68
2021/07/06 11:01:59;;;;;;;2.15;0.60;;;;;;;-145.18;100.00;60484.78;5049631;28;20488;-68
2021/07/06 11:04:57;;;;;;;0.30;0.30;;;;;;;-145.18;100.00;60484.78;5017239;28;20111;-68
2021/07/06 11:07:50;;;;;;;1.85;0.65;;;;;;;-145.18;100.00;60484.78;4958160;28;20042;-69
2021/07/06 11:10:18;;;;;;;1.35;0.50;;;;;;;-145.18;100.00;60484.78;4955419;28;20230;-68
2021/07/06 11:12:47;;;;;;;3.33;0.50;;;;;;;-145.18;100.00;60484.78;4957584;28;20473;-69
2021/07/06 11:15:31;;;;;;;1.52;0.52;;;;;;;-145.18;100.00;60484.78;4956789;28;20049;-68
2021/07/06 11:18:10;;;;;;;0.88;0.50;;;;;;;-145.18;100.00;60484.78;4958691;28;20274;-69
2021/07/06 11:20:44;;;;;;;1.33;0.40;;;;;;;-145.18;100.00;60484.78;4950240;28;20117;-68
2021/07/06 11:23:16;;;;;;;0.75;0.40;;;;;;;-145.18;100.00;60484.78;4958667;28;20047;-68
2021/07/06 11:25:42;;;;;;;;;;;;;;;-145.18;100.00;60484.78;4958246;28;20034;-69